Fort Wainwright, Ladd Army Airfield (PAFB)

NameLadd Army Airfield
CityFort Wainwright
CountryUnited States
ICAOPAFB
IATAFBK
Altitude138 m
CoordinatesGoogle Map
Live Air TrafficLiveATC.net
METARPAFB 172058Z AUTO 00000KT 10SM CLR M30/M33 A3012
2020-01-17 20:58:00 Wind: North (0°) 0 m/s - Visibility: 16093.4 m - Temperature: -30 °C - Dew point: -33 °C - Humidity: 75% - Pressure: 1019.98 hPa

Sorry, no flights used the airport in this database.